Time;durP1;ratioP1;P1;durP2;ratioP2;P2;SDS_P1;SDS_P2;PMS_P1;PMS_P2;Temp;Humidity;BMP_temperature;BMP_pressure;BME280_temperature;BME280_humidity;BME280_pressure;Samples;Min_cycle;Max_cycle;Signal;HPM_P1;HPM_P2
2020/12/15 00:01:23;;;;;;;26.67;14.32;;;4.30;81.70;;;;;;5031897;28;20369;-66
2020/12/15 00:03:49;;;;;;;27.10;14.50;;;4.30;81.80;;;;;;5025250;28;20065;-66
2020/12/15 00:06:16;;;;;;;29.50;15.55;;;4.30;82.40;;;;;;5033885;28;20036;-66
2020/12/15 00:08:41;;;;;;;29.30;15.25;;;4.30;81.70;;;;;;5029139;28;20093;-66
2020/12/15 00:11:07;;;;;;;29.00;14.18;;;4.30;81.70;;;;;;5030840;28;20164;-66
2020/12/15 00:13:33;;;;;;;27.75;14.60;;;4.30;81.80;;;;;;5029494;28;20428;-66
2020/12/15 00:15:59;;;;;;;28.75;14.00;;;4.30;81.70;;;;;;5029575;28;20041;-66
2020/12/15 00:18:25;;;;;;;28.52;14.98;;;4.30;81.80;;;;;;5037570;28;20036;-66
2020/12/15 00:20:50;;;;;;;30.08;14.13;;;4.30;81.70;;;;;;5046130;28;20030;-66
2020/12/15 00:23:16;;;;;;;25.83;14.45;;;4.30;81.70;;;;;;5050951;28;20108;-66
2020/12/15 00:25:42;;;;;;;27.40;13.93;;;4.30;81.80;;;;;;5045320;28;20473;-66
2020/12/15 00:28:07;;;;;;;29.63;15.50;;;4.30;81.70;;;;;;5046929;28;20048;-66
2020/12/15 00:30:33;;;;;;;23.92;13.45;;;4.30;81.60;;;;;;5021931;28;20029;-66
2020/12/15 00:32:59;;;;;;;28.15;14.73;;;4.30;81.80;;;;;;5028946;28;20025;-66
2020/12/15 00:35:24;;;;;;;28.70;14.50;;;4.30;81.70;;;;;;5025889;28;20121;-66
2020/12/15 00:37:50;;;;;;;27.05;14.35;;;4.30;82.20;;;;;;5019635;28;20025;-66
2020/12/15 00:40:16;;;;;;;24.42;14.15;;;4.30;81.70;;;;;;5031849;28;20033;-66
2020/12/15 00:42:42;;;;;;;28.55;15.63;;;4.30;81.80;;;;;;5024865;28;20033;-66
2020/12/15 00:45:07;;;;;;;26.23;13.63;;;4.30;81.60;;;;;;5016988;28;20055;-66
2020/12/15 00:47:33;;;;;;;24.92;13.95;;;4.30;81.80;;;;;;5022976;28;20169;-66
2020/12/15 00:49:59;;;;;;;28.42;14.85;;;4.30;81.80;;;;;;5026084;28;20369;-66
2020/12/15 00:52:26;;;;;;;25.90;12.90;;;4.30;81.70;;;;;;5019619;28;20080;-66
2020/12/15 00:54:51;;;;;;;28.35;14.75;;;4.30;81.80;;;;;;5026054;28;20030;-66
2020/12/15 00:57:17;;;;;;;27.42;14.43;;;4.30;82.00;;;;;;5031733;28;20113;-66
2020/12/15 00:59:44;;;;;;;27.15;14.85;;;4.30;81.90;;;;;;5024964;28;20073;-66
2020/12/15 01:02:10;;;;;;;31.00;14.57;;;4.30;82.00;;;;;;5020342;28;20022;-66
2020/12/15 01:04:35;;;;;;;32.10;15.75;;;4.30;82.00;;;;;;5016005;28;20033;-66
2020/12/15 01:07:01;;;;;;;29.85;16.40;;;4.30;82.00;;;;;;5017484;28;20064;-66
2020/12/15 01:09:27;;;;;;;28.17;14.50;;;4.40;82.00;;;;;;5029574;28;20034;-66
2020/12/15 01:11:53;;;;;;;25.65;13.13;;;4.40;82.00;;;;;;5029843;28;20017;-66
2020/12/15 01:14:18;;;;;;;23.52;12.32;;;4.40;82.10;;;;;;5022437;28;20471;-66
2020/12/15 01:16:44;;;;;;;24.73;13.93;;;4.40;81.80;;;;;;5015859;28;20458;-66
2020/12/15 01:19:10;;;;;;;27.38;14.02;;;4.40;81.90;;;;;;5019242;28;20026;-66
2020/12/15 01:21:35;;;;;;;27.33;13.93;;;4.40;81.80;;;;;;5022093;28;20080;-66
2020/12/15 01:24:01;;;;;;;27.67;13.95;;;4.40;82.10;;;;;;5020820;28;20518;-66
2020/12/15 01:26:27;;;;;;;26.73;13.13;;;4.40;82.00;;;;;;5027165;28;20052;-66
2020/12/15 01:28:52;;;;;;;25.90;13.80;;;4.40;81.90;;;;;;5034146;28;20073;-66
2020/12/15 01:31:25;;;;;;;27.63;13.63;;;4.40;82.00;;;;;;5051734;28;20055;-66
2020/12/15 01:33:52;;;;;;;25.35;12.98;;;4.40;81.90;;;;;;5052702;28;20032;-66
2020/12/15 01:36:34;;;;;;;24.50;12.93;;;4.40;81.90;;;;;;5052062;28;20033;-66
2020/12/15 01:39:00;;;;;;;24.52;12.32;;;4.40;81.90;;;;;;5049031;28;20021;-66
2020/12/15 01:41:26;;;;;;;22.90;13.10;;;4.40;81.80;;;;;;5048705;28;20416;-66
2020/12/15 01:43:56;;;;;;;24.00;12.25;;;4.40;81.70;;;;;;5056739;28;20020;-66
2020/12/15 01:46:21;;;;;;;24.08;13.75;;;4.40;81.90;;;;;;5058536;28;20368;-66
2020/12/15 01:48:48;;;;;;;30.15;14.45;;;4.40;82.00;;;;;;5053187;28;20025;-66
2020/12/15 01:51:15;;;;;;;24.27;14.10;;;4.40;81.80;;;;;;5043008;28;20119;-66
2020/12/15 01:53:42;;;;;;;28.80;15.23;;;4.40;81.80;;;;;;5046363;28;20021;-66
2020/12/15 01:56:09;;;;;;;27.80;13.20;;;4.40;81.90;;;;;;5050648;28;20029;-66
2020/12/15 01:58:35;;;;;;;30.30;14.25;;;4.40;81.80;;;;;;5056502;28;20115;-66
2020/12/15 02:01:01;;;;;;;26.75;13.50;;;4.40;81.80;;;;;;5052261;28;20103;-66
2020/12/15 02:03:26;;;;;;;24.83;13.57;;;4.50;82.50;;;;;;5055640;28;20068;-66
2020/12/15 02:05:52;;;;;;;28.73;15.32;;;4.50;81.80;;;;;;5055013;28;20029;-66
2020/12/15 02:08:18;;;;;;;22.60;12.98;;;4.50;81.80;;;;;;5065086;28;20378;-66
2020/12/15 02:10:44;;;;;;;23.75;12.65;;;4.50;81.90;;;;;;5049012;28;20037;-66
2020/12/15 02:13:09;;;;;;;25.50;13.68;;;4.50;81.60;;;;;;5054446;28;20029;-66
2020/12/15 02:15:35;;;;;;;22.30;13.32;;;4.50;81.70;;;;;;5052250;28;20053;-66
2020/12/15 02:18:01;;;;;;;26.48;13.27;;;4.50;81.80;;;;;;5049814;28;20029;-66
2020/12/15 02:20:26;;;;;;;23.98;12.68;;;4.50;81.70;;;;;;5049816;28;20385;-66
2020/12/15 02:22:52;;;;;;;28.25;14.88;;;4.40;81.70;;;;;;5059958;28;20086;-66
2020/12/15 02:25:18;;;;;;;27.13;13.10;;;4.40;81.60;;;;;;5060779;28;20457;-66
2020/12/15 02:27:43;;;;;;;26.80;13.88;;;4.40;81.60;;;;;;5053847;28;20095;-66
2020/12/15 02:30:09;;;;;;;24.52;13.13;;;4.40;81.50;;;;;;5042945;28;20022;-66
2020/12/15 02:32:35;;;;;;;23.08;13.40;;;4.40;81.60;;;;;;5052556;28;20025;-66
2020/12/15 02:35:02;;;;;;;25.40;12.93;;;4.40;82.30;;;;;;5051779;28;20425;-66
2020/12/15 02:37:29;;;;;;;23.15;13.00;;;4.40;81.60;;;;;;5056855;28;20071;-66
2020/12/15 02:40:03;;;;;;;22.77;13.90;;;4.40;81.80;;;;;;5044954;28;20481;-66
2020/12/15 02:42:29;;;;;;;25.98;12.73;;;4.40;81.80;;;;;;5052408;28;20021;-66
2020/12/15 02:44:56;;;;;;;20.25;12.27;;;4.40;81.80;;;;;;5055765;28;20029;-66
2020/12/15 02:47:21;;;;;;;28.08;14.10;;;4.50;81.80;;;;;;5049061;28;20029;-66
2020/12/15 02:49:47;;;;;;;25.05;13.10;;;4.50;81.80;;;;;;5047747;28;20021;-66
2020/12/15 02:52:14;;;;;;;23.40;12.23;;;4.50;81.70;;;;;;5039208;28;20056;-66
2020/12/15 02:54:40;;;;;;;27.70;12.73;;;4.50;81.60;;;;;;5055160;28;20018;-66
2020/12/15 02:57:06;;;;;;;25.77;13.02;;;4.50;81.60;;;;;;5052021;28;20028;-66
2020/12/15 02:59:32;;;;;;;24.25;13.05;;;4.50;81.50;;;;;;5050385;28;20021;-66
2020/12/15 03:01:57;;;;;;;30.30;14.38;;;4.50;81.50;;;;;;5041495;28;20473;-66
2020/12/15 03:04:23;;;;;;;28.98;13.38;;;4.50;81.50;;;;;;5049213;28;20025;-66
2020/12/15 03:06:49;;;;;;;23.83;12.55;;;4.40;81.50;;;;;;5052477;28;20025;-66
2020/12/15 03:09:15;;;;;;;26.33;13.05;;;4.40;81.50;;;;;;5056896;28;20036;-66
2020/12/15 03:11:40;;;;;;;27.77;13.38;;;4.40;81.60;;;;;;5052003;28;20470;-66
2020/12/15 03:14:06;;;;;;;22.55;12.45;;;4.40;81.70;;;;;;5065259;28;20052;-66
2020/12/15 03:16:32;;;;;;;24.90;14.05;;;4.40;81.60;;;;;;5049090;28;20687;-66
2020/12/15 03:18:59;;;;;;;27.45;14.10;;;4.40;81.70;;;;;;5058373;28;20484;-66
2020/12/15 03:21:25;;;;;;;24.08;11.85;;;4.40;81.70;;;;;;5050546;28;20043;-66
2020/12/15 03:23:51;;;;;;;23.75;11.90;;;4.50;81.60;;;;;;5048962;28;20017;-66
2020/12/15 03:26:18;;;;;;;22.13;11.68;;;4.50;81.60;;;;;;5052203;28;20036;-66
2020/12/15 03:28:44;;;;;;;28.92;13.02;;;4.50;81.50;;;;;;5052192;28;20046;-66
2020/12/15 03:31:10;;;;;;;22.73;12.25;;;4.50;81.70;;;;;;5055850;28;20381;-66
2020/12/15 03:33:35;;;;;;;27.42;13.40;;;4.50;81.80;;;;;;5052205;28;20035;-66
2020/12/15 03:36:01;;;;;;;21.67;12.38;;;4.50;81.70;;;;;;5061226;28;20489;-66
2020/12/15 03:38:27;;;;;;;25.20;13.23;;;4.50;81.40;;;;;;5054326;28;20108;-66
2020/12/15 03:40:53;;;;;;;22.23;12.13;;;4.50;81.60;;;;;;5042676;28;20056;-66
2020/12/15 03:43:18;;;;;;;26.05;14.55;;;4.50;81.50;;;;;;5053818;28;20074;-66
2020/12/15 03:45:44;;;;;;;20.58;13.25;;;4.50;81.50;;;;;;5050659;28;20432;-66
2020/12/15 03:48:14;;;;;;;24.08;13.23;;;4.50;81.50;;;;;;5053391;28;20111;-66
2020/12/15 03:50:40;;;;;;;26.08;12.80;;;4.50;81.50;;;;;;5048507;28;20049;-66
2020/12/15 03:53:06;;;;;;;22.63;13.52;;;4.50;81.40;;;;;;5054084;28;20029;-66
2020/12/15 03:55:31;;;;;;;25.25;12.85;;;4.50;81.50;;;;;;5048784;28;20086;-66
2020/12/15 03:57:57;;;;;;;23.02;13.30;;;4.50;81.60;;;;;;5049015;28;20021;-66
2020/12/15 04:00:23;;;;;;;25.08;13.45;;;4.50;81.50;;;;;;5051602;28;20037;-66
2020/12/15 04:02:49;;;;;;;24.42;14.23;;;4.50;81.60;;;;;;5053271;28;20143;-66
2020/12/15 04:05:15;;;;;;;23.83;12.70;;;4.50;81.50;;;;;;5054174;28;20029;-66
2020/12/15 04:07:42;;;;;;;25.17;12.65;;;4.50;81.50;;;;;;5049628;28;20511;-66
2020/12/15 04:10:08;;;;;;;24.63;13.68;;;4.50;81.40;;;;;;5046205;28;20029;-66
2020/12/15 04:12:33;;;;;;;26.42;13.20;;;4.50;81.30;;;;;;5053843;28;20017;-66
2020/12/15 04:14:59;;;;;;;21.95;12.75;;;4.50;81.30;;;;;;5048074;28;20458;-66
2020/12/15 04:17:25;;;;;;;27.05;13.60;;;4.50;81.30;;;;;;5050064;28;20502;-66
2020/12/15 04:19:50;;;;;;;21.25;12.77;;;4.50;81.20;;;;;;5045215;28;20536;-66
2020/12/15 04:22:16;;;;;;;27.13;13.93;;;4.60;81.30;;;;;;5042858;28;20119;-66
2020/12/15 04:24:42;;;;;;;23.25;13.50;;;4.60;81.40;;;;;;5051662;28;20033;-66
2020/12/15 04:27:07;;;;;;;26.63;12.98;;;4.50;81.20;;;;;;5062832;28;20033;-66
2020/12/15 04:29:33;;;;;;;24.35;12.25;;;4.50;81.20;;;;;;5042750;28;20419;-66
2020/12/15 04:31:59;;;;;;;25.80;13.32;;;4.50;81.40;;;;;;5052512;28;20036;-66
2020/12/15 04:34:25;;;;;;;22.55;12.73;;;4.60;81.20;;;;;;5048033;28;20465;-66
2020/12/15 04:36:50;;;;;;;26.13;14.38;;;4.50;81.30;;;;;;5064052;28;20341;-66
2020/12/15 04:39:17;;;;;;;24.05;13.18;;;4.60;81.10;;;;;;5049320;28;20036;-66
2020/12/15 04:41:43;;;;;;;22.75;12.40;;;4.50;81.00;;;;;;5058103;28;20028;-66
2020/12/15 04:44:09;;;;;;;21.25;12.63;;;4.50;81.10;;;;;;5055119;28;20492;-66
2020/12/15 04:46:45;;;;;;;25.52;13.52;;;4.50;81.20;;;;;;5052539;28;20055;-66
2020/12/15 04:49:19;;;;;;;25.50;12.75;;;4.50;82.00;;;;;;5047611;28;20423;-66
2020/12/15 04:51:58;;;;;;;25.52;13.95;;;4.60;81.30;;;;;;5051563;28;20025;-66
2020/12/15 04:54:33;;;;;;;23.25;12.45;;;4.60;81.30;;;;;;5047015;28;20473;-66
2020/12/15 04:57:01;;;;;;;26.52;13.75;;;4.60;81.30;;;;;;5050767;28;20357;-66
2020/12/15 04:59:34;;;;;;;21.15;12.75;;;4.50;81.10;;;;;;5057415;28;20425;-66
2020/12/15 05:02:04;;;;;;;26.02;13.00;;;4.50;81.10;;;;;;5051588;28;20021;-66
2020/12/15 05:04:41;;;;;;;22.15;13.80;;;4.50;81.10;;;;;;5049839;28;20031;-66
2020/12/15 05:07:08;;;;;;;24.77;14.05;;;4.50;81.10;;;;;;5053988;28;20038;-66
2020/12/15 05:09:34;;;;;;;24.58;13.25;;;4.50;81.10;;;;;;5051522;28;20033;-66
2020/12/15 05:12:01;;;;;;;23.08;12.43;;;4.50;81.10;;;;;;5052164;28;20029;-66
2020/12/15 05:14:28;;;;;;;23.67;13.60;;;4.50;81.40;;;;;;5052019;28;20091;-66
2020/12/15 05:16:54;;;;;;;23.92;13.60;;;4.50;81.40;;;;;;5049022;28;20031;-66
2020/12/15 05:19:20;;;;;;;22.02;12.73;;;4.50;81.40;;;;;;5045495;28;20029;-66
2020/12/15 05:21:59;;;;;;;23.75;13.38;;;4.60;81.40;;;;;;5034228;28;20028;-66
2020/12/15 05:24:29;;;;;;;23.27;13.27;;;4.60;81.20;;;;;;5043134;28;20435;-66
2020/12/15 05:27:00;;;;;;;23.13;12.90;;;4.60;81.10;;;;;;5053421;28;20477;-66
2020/12/15 05:29:25;;;;;;;25.15;13.75;;;4.60;81.10;;;;;;5063905;28;20037;-66
2020/12/15 05:31:52;;;;;;;25.30;12.93;;;4.60;81.00;;;;;;5049561;28;20079;-66
2020/12/15 05:34:26;;;;;;;23.90;13.23;;;4.60;81.00;;;;;;5055139;28;20078;-66
2020/12/15 05:36:59;;;;;;;26.58;13.32;;;4.60;80.90;;;;;;5058341;28;20396;-66
2020/12/15 05:39:26;;;;;;;25.38;13.60;;;4.50;80.70;;;;;;5049423;28;20110;-66
2020/12/15 05:42:06;;;;;;;24.60;13.13;;;4.50;80.60;;;;;;5055267;28;20036;-66
2020/12/15 05:44:36;;;;;;;23.13;12.70;;;4.50;80.60;;;;;;5050550;28;20029;-66
2020/12/15 05:47:07;;;;;;;22.15;13.20;;;4.40;80.70;;;;;;5052408;28;20021;-66
2020/12/15 05:49:34;;;;;;;25.38;13.32;;;4.40;81.10;;;;;;5047631;28;20104;-66
2020/12/15 05:52:00;;;;;;;20.63;12.20;;;4.40;81.10;;;;;;5052466;28;20040;-66
2020/12/15 05:54:27;;;;;;;23.45;12.55;;;4.40;81.30;;;;;;5050702;28;20013;-66
2020/12/15 05:57:04;;;;;;;26.60;12.98;;;4.40;81.30;;;;;;5057765;28;20029;-66
2020/12/15 05:59:31;;;;;;;23.70;12.75;;;4.50;81.30;;;;;;5055301;28;20069;-66
2020/12/15 06:02:08;;;;;;;26.27;13.75;;;4.40;81.20;;;;;;5058604;28;20013;-66
2020/12/15 06:04:35;;;;;;;22.08;12.45;;;4.50;81.30;;;;;;5044178;28;20424;-66
2020/12/15 06:07:03;;;;;;;28.90;14.68;;;4.50;81.40;;;;;;5058256;28;20028;-66
2020/12/15 06:09:30;;;;;;;23.90;13.23;;;4.50;81.20;;;;;;5058695;28;20039;-66
2020/12/15 06:11:56;;;;;;;24.95;13.77;;;4.50;81.40;;;;;;5065726;28;20488;-66
2020/12/15 06:14:24;;;;;;;25.92;13.57;;;4.50;81.20;;;;;;5070155;28;20032;-66
2020/12/15 06:16:50;;;;;;;26.40;15.02;;;4.50;81.30;;;;;;5056806;28;20520;-66
2020/12/15 06:19:18;;;;;;;23.33;12.88;;;4.50;81.30;;;;;;5057585;28;20036;-66
2020/12/15 06:21:53;;;;;;;25.67;12.77;;;4.50;81.40;;;;;;5051603;28;20098;-66
2020/12/15 06:24:40;;;;;;;24.63;12.88;;;4.50;81.50;;;;;;5055661;28;20033;-66
2020/12/15 06:27:11;;;;;;;23.33;12.43;;;4.60;81.20;;;;;;5068980;28;20068;-66
2020/12/15 06:29:39;;;;;;;20.98;12.60;;;4.60;81.40;;;;;;5035917;28;20473;-66
2020/12/15 06:32:23;;;;;;;20.67;12.20;;;4.60;81.40;;;;;;5029130;28;20061;-66
2020/12/15 06:34:50;;;;;;;21.65;12.93;;;4.60;81.30;;;;;;5016577;28;20025;-66
2020/12/15 06:37:17;;;;;;;26.10;14.55;;;4.70;81.20;;;;;;5034690;28;20682;-66
2020/12/15 06:39:54;;;;;;;26.67;14.07;;;4.70;81.20;;;;;;5016942;28;20030;-66
2020/12/15 06:42:21;;;;;;;22.83;12.70;;;4.70;80.90;;;;;;5010393;28;20595;-66
2020/12/15 06:44:58;;;;;;;24.27;13.90;;;4.70;80.90;;;;;;5029573;28;20129;-66
2020/12/15 06:47:26;;;;;;;24.38;13.95;;;4.70;80.90;;;;;;5024812;28;20469;-66
2020/12/15 06:49:52;;;;;;;25.08;13.43;;;4.70;81.00;;;;;;5025443;28;20512;-66
2020/12/15 06:52:26;;;;;;;21.08;12.52;;;4.70;80.80;;;;;;5019195;28;20111;-66
2020/12/15 06:54:56;;;;;;;25.73;13.55;;;4.70;80.90;;;;;;5021814;28;20030;-66
2020/12/15 06:57:31;;;;;;;22.15;12.73;;;4.70;80.60;;;;;;5022595;28;20017;-66
2020/12/15 06:59:59;;;;;;;26.83;14.90;;;4.70;80.70;;;;;;5025481;28;20052;-66
2020/12/15 07:02:29;;;;;;;25.75;14.18;;;4.70;80.70;;;;;;5018905;28;20064;-66
2020/12/15 07:05:25;;;;;;;20.17;12.43;;;4.70;80.70;;;;;;5021118;28;20069;-66
2020/12/15 07:07:53;;;;;;;22.35;12.60;;;4.70;81.20;;;;;;5021583;28;20075;-66
2020/12/15 07:10:20;;;;;;;20.38;12.07;;;4.70;80.70;;;;;;5022195;28;20064;-66
2020/12/15 07:12:47;;;;;;;22.23;12.73;;;4.80;80.70;;;;;;5018297;28;20088;-66
2020/12/15 07:15:14;;;;;;;27.05;14.32;;;4.80;80.50;;;;;;5016867;28;20056;-66
2020/12/15 07:17:50;;;;;;;22.35;13.07;;;4.80;80.60;;;;;;5016438;28;20520;-66
2020/12/15 07:20:18;;;;;;;22.45;13.48;;;4.80;80.40;;;;;;5013776;28;20048;-66
2020/12/15 07:22:44;;;;;;;22.65;13.88;;;4.80;80.60;;;;;;5016576;28;20030;-66
2020/12/15 07:25:11;;;;;;;23.27;12.73;;;4.80;80.70;;;;;;5017925;28;20029;-66
2020/12/15 07:27:38;;;;;;;22.45;12.80;;;4.80;80.70;;;;;;5027323;28;20050;-66
2020/12/15 07:30:10;;;;;;;20.20;13.30;;;4.80;81.20;;;;;;5042049;28;20373;-66
2020/12/15 07:32:37;;;;;;;21.90;12.95;;;4.80;80.60;;;;;;5041807;28;20142;-66
2020/12/15 07:35:04;;;;;;;25.00;13.45;;;4.80;80.60;;;;;;5040381;28;20064;-66
2020/12/15 07:37:30;;;;;;;24.10;12.63;;;4.80;80.50;;;;;;5042237;28;20062;-66
2020/12/15 07:40:03;;;;;;;25.08;13.68;;;4.80;80.60;;;;;;5045682;28;20063;-66
2020/12/15 07:42:29;;;;;;;25.45;13.30;;;4.80;80.80;;;;;;5043441;28;20362;-66
2020/12/15 07:44:59;;;;;;;23.02;13.30;;;4.80;80.80;;;;;;5047051;28;20032;-66
2020/12/15 07:47:26;;;;;;;22.48;12.85;;;4.90;80.90;;;;;;5035848;28;20033;-66
2020/12/15 07:49:54;;;;;;;25.45;13.38;;;4.90;80.90;;;;;;5046086;28;20840;-66
2020/12/15 07:52:30;;;;;;;23.10;13.65;;;4.90;80.80;;;;;;5043497;28;20021;-66
2020/12/15 07:55:10;;;;;;;23.15;14.35;;;5.00;80.90;;;;;;5039917;28;20052;-66
2020/12/15 07:57:38;;;;;;;23.95;13.45;;;5.00;80.80;;;;;;5037924;28;20040;-66
2020/12/15 08:00:15;;;;;;;23.67;12.07;;;5.00;80.70;;;;;;5039981;28;20036;-66
2020/12/15 08:02:43;;;;;;;20.75;12.20;;;5.10;80.60;;;;;;5020047;28;20116;-66
2020/12/15 08:05:14;;;;;;;25.88;14.52;;;5.10;80.40;;;;;;5036176;28;20029;-66
2020/12/15 08:08:03;;;;;;;;;;;5.10;80.50;;;;;;5037467;28;20112;-66
2020/12/15 08:10:31;;;;;;;21.67;11.90;;;5.00;80.20;;;;;;5032657;28;20018;-66
2020/12/15 08:12:58;;;;;;;24.55;13.52;;;5.00;80.70;;;;;;5031621;28;20029;-66
2020/12/15 08:15:25;;;;;;;23.65;12.57;;;5.10;80.70;;;;;;5031800;28;20033;-66
2020/12/15 08:17:51;;;;;;;24.83;12.88;;;5.10;80.60;;;;;;5034889;28;20433;-66
2020/12/15 08:20:27;;;;;;;25.42;13.63;;;5.10;80.60;;;;;;5028569;28;20106;-66
2020/12/15 08:23:30;;;;;;;24.50;13.00;;;5.10;80.70;;;;;;5033747;28;20036;-66
2020/12/15 08:25:56;;;;;;;;;;;5.20;80.50;;;;;;4953602;28;20191;-66
2020/12/15 08:28:22;;;;;;;21.02;11.23;;;5.10;80.50;;;;;;5002653;28;20420;-66
2020/12/15 08:30:53;;;;;;;24.15;13.13;;;5.20;80.80;;;;;;5004700;28;20029;-66
2020/12/15 08:33:24;;;;;;;24.85;13.57;;;5.20;80.60;;;;;;5012468;28;20057;-66
2020/12/15 08:35:52;;;;;;;24.55;13.07;;;5.30;80.70;;;;;;5011962;28;20053;-66
2020/12/15 08:38:18;;;;;;;22.10;12.63;;;5.30;80.50;;;;;;5013598;28;20033;-66
2020/12/15 08:40:51;;;;;;;22.63;12.98;;;5.30;80.60;;;;;;5011966;28;20053;-66
2020/12/15 08:43:16;;;;;;;22.98;13.07;;;5.30;80.60;;;;;;5013208;28;20045;-66
2020/12/15 08:45:42;;;;;;;26.27;12.93;;;5.30;80.30;;;;;;5013346;28;20033;-65
2020/12/15 08:48:16;;;;;;;26.48;13.15;;;5.30;80.30;;;;;;5015631;28;20682;-66
2020/12/15 08:50:42;;;;;;;23.92;13.02;;;5.30;80.20;;;;;;5015677;28;20033;-66
2020/12/15 08:53:09;;;;;;;23.90;13.60;;;5.30;80.20;;;;;;5006122;28;20041;-66
2020/12/15 08:55:36;;;;;;;23.08;13.45;;;5.30;80.20;;;;;;5005967;28;20166;-66
2020/12/15 08:58:03;;;;;;;26.90;13.18;;;5.40;80.00;;;;;;5004471;28;20370;-66
2020/12/15 09:00:33;;;;;;;21.25;11.48;;;5.40;80.10;;;;;;4994959;28;20026;-66
2020/12/15 09:03:08;;;;;;;21.60;12.25;;;5.40;80.10;;;;;;5015812;28;20112;-66
2020/12/15 09:05:56;;;;;;;20.30;11.95;;;5.40;80.10;;;;;;5007385;28;20025;-66
2020/12/15 09:08:24;;;;;;;22.77;12.27;;;5.40;79.90;;;;;;5012939;28;20081;-66
2020/12/15 09:10:52;;;;;;;20.30;12.02;;;5.40;79.90;;;;;;5013384;28;20037;-66
2020/12/15 09:13:18;;;;;;;27.88;13.45;;;5.40;80.20;;;;;;5013950;28;20025;-66
2020/12/15 09:15:51;;;;;;;22.17;12.80;;;5.40;80.20;;;;;;5005424;28;20037;-66
2020/12/15 09:18:28;;;;;;;23.05;12.32;;;5.50;80.20;;;;;;5008732;28;20036;-66
2020/12/15 09:20:54;;;;;;;21.15;12.82;;;5.50;80.40;;;;;;5007014;28;20046;-66
2020/12/15 09:23:26;;;;;;;22.42;12.63;;;5.50;80.50;;;;;;4997804;28;20675;-66
2020/12/15 09:25:53;;;;;;;19.02;11.93;;;5.60;80.60;;;;;;5004959;28;20390;-66
2020/12/15 09:28:28;;;;;;;20.30;10.77;;;5.60;80.50;;;;;;5018438;28;20056;-66
2020/12/15 09:30:54;;;;;;;22.50;11.77;;;5.70;80.30;;;;;;5029199;28;20033;-66
2020/12/15 09:33:20;;;;;;;20.00;12.70;;;5.70;79.90;;;;;;5026990;28;20866;-66
2020/12/15 09:35:47;;;;;;;20.33;12.00;;;5.70;80.00;;;;;;5030548;28;20424;-66
2020/12/15 09:38:13;;;;;;;19.58;11.55;;;5.80;79.80;;;;;;5027954;28;20032;-66
2020/12/15 09:40:39;;;;;;;19.20;11.90;;;5.80;79.80;;;;;;5030506;28;20501;-66
2020/12/15 09:43:05;;;;;;;20.52;12.77;;;5.80;79.70;;;;;;5024737;28;20139;-66
2020/12/15 09:45:31;;;;;;;22.23;12.38;;;5.80;79.60;;;;;;5024083;28;20400;-66
2020/12/15 09:48:01;;;;;;;20.23;12.70;;;5.80;79.50;;;;;;5025173;28;20033;-66
2020/12/15 09:50:27;;;;;;;21.27;12.80;;;5.80;79.40;;;;;;5032599;28;20392;-66
2020/12/15 09:52:53;;;;;;;18.48;11.90;;;5.80;79.40;;;;;;5033808;28;21169;-66
2020/12/15 09:55:18;;;;;;;20.58;12.45;;;5.80;79.40;;;;;;5032286;28;20112;-66
2020/12/15 09:57:44;;;;;;;20.60;11.82;;;5.90;79.40;;;;;;5034480;28;20029;-66
2020/12/15 10:00:10;;;;;;;22.95;12.32;;;5.80;79.20;;;;;;5030452;28;20029;-66
2020/12/15 10:02:35;;;;;;;21.40;12.18;;;5.90;79.20;;;;;;5034031;28;20112;-66
2020/12/15 10:05:01;;;;;;;19.83;12.40;;;5.90;79.30;;;;;;5032691;28;20123;-66
2020/12/15 10:07:27;;;;;;;22.90;13.70;;;5.90;79.30;;;;;;5033864;28;20033;-66
2020/12/15 10:09:57;;;;;;;18.05;11.63;;;5.90;79.20;;;;;;5037258;28;20136;-66
2020/12/15 10:12:23;;;;;;;23.52;13.95;;;5.90;79.20;;;;;;5033201;28;20091;-66
2020/12/15 10:14:49;;;;;;;22.70;12.88;;;5.90;79.10;;;;;;5032356;28;20100;-66
2020/12/15 10:17:15;;;;;;;18.35;13.25;;;5.90;79.10;;;;;;5032808;28;20040;-66
2020/12/15 10:19:41;;;;;;;20.25;12.40;;;5.90;78.90;;;;;;5037802;28;20036;-66
2020/12/15 10:22:06;;;;;;;21.58;12.20;;;5.90;78.90;;;;;;5035853;28;20055;-66
2020/12/15 10:24:32;;;;;;;20.83;11.98;;;6.00;79.10;;;;;;5034836;28;20637;-66
2020/12/15 10:26:58;;;;;;;22.23;12.85;;;6.00;78.90;;;;;;5035946;28;20067;-66
2020/12/15 10:29:29;;;;;;;21.45;13.02;;;5.90;78.80;;;;;;5017960;28;20045;-66
2020/12/15 10:31:55;;;;;;;20.08;12.75;;;6.00;79.00;;;;;;5016162;28;20037;-66
2020/12/15 10:34:21;;;;;;;20.77;12.75;;;6.00;79.00;;;;;;5012105;28;20489;-66
2020/12/15 10:36:47;;;;;;;21.38;12.35;;;6.00;79.00;;;;;;5019533;28;20030;-66
2020/12/15 10:39:13;;;;;;;21.45;12.95;;;6.00;78.90;;;;;;5015536;28;20087;-66
2020/12/15 10:41:41;;;;;;;23.17;14.68;;;6.00;78.70;;;;;;5013510;28;20759;-66
2020/12/15 10:44:13;;;;;;;20.13;12.65;;;6.00;78.70;;;;;;5011188;28;20033;-66
2020/12/15 10:46:38;;;;;;;18.88;12.60;;;5.90;78.40;;;;;;5007836;28;20029;-66
2020/12/15 10:49:04;;;;;;;19.73;12.68;;;5.90;78.70;;;;;;5016677;28;20052;-66
2020/12/15 10:51:30;;;;;;;18.30;11.65;;;5.90;78.70;;;;;;5009147;28;20025;-66
2020/12/15 10:53:55;;;;;;;21.92;12.63;;;5.90;78.60;;;;;;5018274;28;20117;-66
2020/12/15 10:56:22;;;;;;;23.92;13.52;;;5.90;78.40;;;;;;5017920;28;20037;-66
2020/12/15 10:58:48;;;;;;;23.40;12.75;;;5.90;78.60;;;;;;5015614;28;20036;-66
2020/12/15 11:01:14;;;;;;;23.52;13.80;;;5.80;78.50;;;;;;5017081;28;20049;-66
2020/12/15 11:03:40;;;;;;;23.50;14.50;;;5.80;78.60;;;;;;5019082;28;20120;-66
2020/12/15 11:06:06;;;;;;;24.20;14.05;;;5.80;78.60;;;;;;5018898;28;20030;-66
2020/12/15 11:08:31;;;;;;;22.95;14.20;;;5.70;78.60;;;;;;5017627;28;20064;-66
2020/12/15 11:10:57;;;;;;;23.58;14.73;;;5.70;78.40;;;;;;5012333;28;20045;-66
2020/12/15 11:13:23;;;;;;;26.80;14.00;;;5.70;78.60;;;;;;5009837;28;20033;-66
2020/12/15 11:15:49;;;;;;;22.70;14.05;;;5.70;78.60;;;;;;5018164;28;20120;-66
2020/12/15 11:18:15;;;;;;;25.50;14.88;;;5.70;78.60;;;;;;5016861;28;20076;-66
2020/12/15 11:20:40;;;;;;;26.33;15.13;;;5.70;78.70;;;;;;5020067;28;20026;-66
2020/12/15 11:23:06;;;;;;;21.80;13.68;;;5.70;78.90;;;;;;5022245;28;20111;-66
2020/12/15 11:25:32;;;;;;;25.20;15.57;;;5.70;78.90;;;;;;5017849;28;20789;-66
2020/12/15 11:27:58;;;;;;;24.88;14.15;;;5.70;78.90;;;;;;5028343;28;20071;-66
2020/12/15 11:30:24;;;;;;;24.17;14.25;;;5.70;79.00;;;;;;5037625;28;20059;-66
2020/12/15 11:32:50;;;;;;;25.52;14.57;;;5.70;78.70;;;;;;5038858;28;21411;-66
2020/12/15 11:35:16;;;;;;;24.30;14.57;;;5.60;78.60;;;;;;5039235;28;20029;-66
2020/12/15 11:37:43;;;;;;;22.73;13.68;;;5.60;78.60;;;;;;5039871;28;20033;-66
2020/12/15 11:40:10;;;;;;;23.08;14.68;;;5.60;78.40;;;;;;5041031;28;20484;-66
2020/12/15 11:42:42;;;;;;;25.27;14.13;;;5.60;78.50;;;;;;5042568;28;20404;-66
2020/12/15 11:45:09;;;;;;;22.10;13.10;;;5.50;78.40;;;;;;5036529;28;20033;-66
2020/12/15 11:47:35;;;;;;;22.90;13.68;;;5.50;78.60;;;;;;5039124;28;20032;-66
2020/12/15 11:50:01;;;;;;;22.13;12.95;;;5.50;78.70;;;;;;5037909;28;20028;-66
2020/12/15 11:52:27;;;;;;;20.92;11.90;;;5.50;78.80;;;;;;5029415;28;20021;-66
2020/12/15 11:54:53;;;;;;;22.05;12.68;;;5.40;78.50;;;;;;5037529;28;20567;-66
2020/12/15 11:57:19;;;;;;;21.20;12.85;;;5.40;78.40;;;;;;5036767;28;20033;-66
2020/12/15 11:59:45;;;;;;;20.52;12.75;;;5.30;78.20;;;;;;5039034;28;20041;-66
2020/12/15 12:02:14;;;;;;;20.60;12.65;;;5.30;78.20;;;;;;5037819;28;20389;-66
2020/12/15 12:04:40;;;;;;;21.80;13.68;;;5.20;78.50;;;;;;5033788;28;20044;-66
2020/12/15 12:07:09;;;;;;;21.73;13.10;;;5.10;78.10;;;;;;5038163;28;20397;-66
2020/12/15 12:09:36;;;;;;;18.60;12.07;;;5.10;78.30;;;;;;5029866;28;20060;-66
2020/12/15 12:12:02;;;;;;;21.23;13.00;;;5.10;78.60;;;;;;5032893;28;20032;-66
2020/12/15 12:14:28;;;;;;;22.75;13.70;;;5.10;78.60;;;;;;5032544;28;20029;-66
2020/12/15 12:16:54;;;;;;;23.95;15.23;;;5.00;78.50;;;;;;5026202;28;20034;-66
2020/12/15 12:19:20;;;;;;;23.85;14.35;;;5.00;78.60;;;;;;5028905;28;20397;-66
2020/12/15 12:21:45;;;;;;;24.02;14.55;;;5.00;78.80;;;;;;5028506;28;20096;-66
2020/12/15 12:24:12;;;;;;;24.25;13.52;;;5.00;78.90;;;;;;5028389;28;20037;-66
2020/12/15 12:26:37;;;;;;;23.70;13.23;;;4.90;78.80;;;;;;5029808;28;20092;-66
2020/12/15 12:29:04;;;;;;;24.00;12.85;;;4.90;79.00;;;;;;5033892;28;20124;-66
2020/12/15 12:31:30;;;;;;;21.45;13.77;;;4.90;79.20;;;;;;5034249;28;20021;-66
2020/12/15 12:33:56;;;;;;;21.92;12.85;;;4.90;79.20;;;;;;5034802;28;20108;-66
2020/12/15 12:36:22;;;;;;;22.45;13.52;;;5.00;79.10;;;;;;5036679;28;20178;-65
2020/12/15 12:38:48;;;;;;;20.95;12.85;;;5.00;79.10;;;;;;5036398;28;20029;-66
2020/12/15 12:41:17;;;;;;;23.98;14.00;;;5.00;78.90;;;;;;5033486;28;20417;-66